createdAt,value
2019-02-20T00:00:54.572Z,2.73
2019-02-20T00:03:22.046Z,2.90
2019-02-20T00:05:49.496Z,3.73
2019-02-20T00:08:16.979Z,3.03
2019-02-20T00:10:44.445Z,2.40
2019-02-20T00:13:11.908Z,3.80
2019-02-20T00:15:39.455Z,3.17
2019-02-20T00:18:06.936Z,3.90
2019-02-20T00:20:34.397Z,3.07
2019-02-20T00:23:01.868Z,2.97
2019-02-20T00:25:30.110Z,3.23
2019-02-20T00:27:57.572Z,2.90
2019-02-20T00:30:25.040Z,3.60
2019-02-20T00:32:52.613Z,3.90
2019-02-20T00:35:20.062Z,3.00
2019-02-20T00:37:47.709Z,3.30
2019-02-20T00:40:15.150Z,3.57
2019-02-20T00:42:42.607Z,2.77
2019-02-20T00:45:26.194Z,3.10
2019-02-20T00:47:59.543Z,3.50
2019-02-20T00:50:27.015Z,3.40
2019-02-20T00:53:07.163Z,2.67
2019-02-20T00:55:34.774Z,3.13
2019-02-20T00:58:02.236Z,3.40
2019-02-20T01:00:29.686Z,2.93
2019-02-20T01:02:57.245Z,3.43
2019-02-20T01:05:24.809Z,2.83
2019-02-20T01:07:52.285Z,3.13
2019-02-20T01:10:19.723Z,3.70
2019-02-20T01:12:47.220Z,3.17
2019-02-20T01:15:14.764Z,3.17
2019-02-20T01:17:42.237Z,3.10
2019-02-20T01:20:11.209Z,3.80
2019-02-20T01:22:38.664Z,3.17
2019-02-20T01:25:06.131Z,3.77
2019-02-20T01:27:33.577Z,3.80
2019-02-20T01:30:01.072Z,4.00
2019-02-20T01:32:28.519Z,3.53
2019-02-20T01:34:55.977Z,3.17
2019-02-20T01:37:23.456Z,3.30
2019-02-20T01:39:50.925Z,3.33
2019-02-20T01:42:18.379Z,3.70
2019-02-20T01:44:45.998Z,3.33
2019-02-20T01:47:13.449Z,3.53
2019-02-20T01:49:40.944Z,3.90
2019-02-20T01:52:08.438Z,4.17
2019-02-20T01:54:36.005Z,4.60
2019-02-20T01:57:03.774Z,3.47
2019-02-20T01:59:31.329Z,3.63
2019-02-20T02:01:58.788Z,3.20
2019-02-20T02:04:26.269Z,3.70
2019-02-20T02:06:54.486Z,3.70
2019-02-20T02:09:21.943Z,3.67
2019-02-20T02:11:49.407Z,3.23
2019-02-20T02:14:16.869Z,2.72
2019-02-20T02:16:44.383Z,3.33
2019-02-20T02:19:11.944Z,3.33
2019-02-20T02:21:39.406Z,3.40
2019-02-20T02:24:06.895Z,3.13
2019-02-20T02:26:35.143Z,3.47
2019-02-20T02:29:03.517Z,3.50
2019-02-20T02:31:30.977Z,3.67
2019-02-20T02:33:58.443Z,3.40
2019-02-20T02:36:25.925Z,4.10
2019-02-20T02:38:54.157Z,3.43
2019-02-20T02:41:21.621Z,2.87
2019-02-20T02:43:49.077Z,3.43
2019-02-20T02:46:16.547Z,3.40
2019-02-20T02:48:44.054Z,3.60
2019-02-20T02:51:13.031Z,3.10
2019-02-20T02:53:40.502Z,4.17
2019-02-20T02:56:08.067Z,4.03
2019-02-20T02:58:35.630Z,3.40
2019-02-20T03:01:04.300Z,4.10
2019-02-20T03:03:31.802Z,3.43
2019-02-20T03:06:00.076Z,3.03
2019-02-20T03:08:27.520Z,3.20
2019-02-20T03:10:55.100Z,4.40
2019-02-20T03:13:22.652Z,3.07
2019-02-20T03:15:50.110Z,3.00
2019-02-20T03:18:17.577Z,4.00
2019-02-20T03:20:45.139Z,3.23
2019-02-20T03:23:12.601Z,3.90
2019-02-20T03:25:40.054Z,3.03
2019-02-20T03:28:07.506Z,3.90
2019-02-20T03:30:34.971Z,3.10
2019-02-20T03:33:02.432Z,3.80
2019-02-20T03:35:29.888Z,3.60
2019-02-20T03:37:57.345Z,3.30
2019-02-20T03:40:24.805Z,3.07
2019-02-20T03:42:52.594Z,3.53
2019-02-20T03:45:20.060Z,3.40
2019-02-20T03:47:47.532Z,3.10
2019-02-20T03:50:15.763Z,3.63
2019-02-20T03:52:43.236Z,3.07
2019-02-20T03:55:10.734Z,3.87
2019-02-20T03:57:38.202Z,3.37
2019-02-20T04:00:05.766Z,3.50
2019-02-20T04:02:33.232Z,3.47
2019-02-20T04:05:00.779Z,2.83
2019-02-20T04:07:28.240Z,3.60
2019-02-20T04:09:55.700Z,3.20
2019-02-20T04:12:23.157Z,3.50
2019-02-20T04:14:50.610Z,3.57
2019-02-20T04:17:18.067Z,3.27
2019-02-20T04:19:45.518Z,3.27
2019-02-20T04:22:13.026Z,3.07
2019-02-20T04:24:41.290Z,3.83
2019-02-20T04:27:10.278Z,3.40
2019-02-20T04:29:37.780Z,3.27
2019-02-20T04:32:06.003Z,3.63
2019-02-20T04:34:33.474Z,3.70
2019-02-20T04:37:00.939Z,3.90
2019-02-20T04:39:28.420Z,3.73
2019-02-20T04:41:55.989Z,3.70
2019-02-20T04:44:23.445Z,3.60
2019-02-20T04:46:51.000Z,3.23
2019-02-20T04:49:18.455Z,3.33
2019-02-20T04:51:45.931Z,3.60
2019-02-20T04:54:13.973Z,3.60
2019-02-20T04:56:41.023Z,4.00
2019-02-20T04:59:08.484Z,3.23
2019-02-20T05:01:35.950Z,3.67
2019-02-20T05:04:03.780Z,3.30
2019-02-20T05:06:32.010Z,3.30
2019-02-20T05:08:59.493Z,3.30
2019-02-20T05:11:26.992Z,3.43
2019-02-20T05:13:55.172Z,2.93
2019-02-20T05:16:23.423Z,3.13
2019-02-20T05:18:50.884Z,3.40
2019-02-20T05:21:18.351Z,4.30
2019-02-20T05:23:46.284Z,4.57
2019-02-20T05:26:13.742Z,3.90
2019-02-20T05:28:41.956Z,5.57
2019-02-20T05:31:09.429Z,4.73
2019-02-20T05:33:36.904Z,4.93
2019-02-20T05:36:05.146Z,4.00
2019-02-20T05:38:32.602Z,5.17
2019-02-20T05:41:00.061Z,5.03
2019-02-20T05:43:27.559Z,5.10
2019-02-20T05:45:55.752Z,4.77
2019-02-20T05:48:23.984Z,4.83
2019-02-20T05:50:51.457Z,5.00
2019-02-20T05:53:18.911Z,5.13
2019-02-20T05:55:46.369Z,5.17
2019-02-20T05:58:13.829Z,5.03
2019-02-20T06:00:41.312Z,4.50
2019-02-20T06:03:08.804Z,4.53
2019-02-20T06:05:37.051Z,5.10
2019-02-20T06:08:05.184Z,5.37
2019-02-20T06:10:32.645Z,5.43
2019-02-20T06:13:00.153Z,4.70
2019-02-20T06:15:28.076Z,4.53
2019-02-20T06:17:57.513Z,4.70
2019-02-20T06:20:24.957Z,4.30
2019-02-20T06:22:52.448Z,5.00
2019-02-20T06:25:20.016Z,4.30
2019-02-20T06:27:47.508Z,4.77
2019-02-20T06:30:15.802Z,5.17
2019-02-20T06:32:44.032Z,4.40
2019-02-20T06:35:11.538Z,4.27
2019-02-20T06:37:39.771Z,5.00
2019-02-20T06:40:07.242Z,3.73
2019-02-20T06:42:34.827Z,4.37
2019-02-20T06:45:02.307Z,4.53
2019-02-20T06:47:30.588Z,3.83
2019-02-20T06:49:58.017Z,3.53
2019-02-20T06:52:25.460Z,4.50
2019-02-20T06:54:54.228Z,4.13
2019-02-20T06:57:21.194Z,4.63
2019-02-20T06:59:48.704Z,3.97
2019-02-20T07:02:16.145Z,4.07
2019-02-20T07:04:43.600Z,3.83
2019-02-20T07:07:11.941Z,5.27
2019-02-20T07:09:56.337Z,4.40
2019-02-20T07:12:44.568Z,3.90
2019-02-20T07:15:20.012Z,4.03
2019-02-20T07:18:01.261Z,4.47
2019-02-20T07:20:40.672Z,3.70
2019-02-20T07:23:19.887Z,4.40
2019-02-20T07:29:09.027Z,5.37
2019-02-20T07:31:36.595Z,4.70
2019-02-20T07:34:05.502Z,4.37
2019-02-20T07:36:31.551Z,4.60
2019-02-20T07:38:59.024Z,3.70
2019-02-20T07:41:26.501Z,4.70
2019-02-20T07:43:53.974Z,4.83
2019-02-20T07:46:21.460Z,4.43
2019-02-20T07:48:49.038Z,4.33
2019-02-20T07:51:16.489Z,3.90
2019-02-20T07:53:43.948Z,4.03
2019-02-20T07:56:11.502Z,3.90
2019-02-20T07:58:39.078Z,4.30
2019-02-20T08:01:06.530Z,4.20
2019-02-20T08:03:33.977Z,4.40
2019-02-20T08:06:01.559Z,4.20
2019-02-20T08:08:29.025Z,4.10
2019-02-20T08:10:58.028Z,4.03
2019-02-20T08:13:25.506Z,4.13
2019-02-20T08:15:53.715Z,4.53
2019-02-20T08:18:21.169Z,4.80
2019-02-20T08:20:48.642Z,3.70
2019-02-20T08:23:16.101Z,3.83
2019-02-20T08:25:43.553Z,4.77
2019-02-20T08:28:11.061Z,3.80
2019-02-20T08:30:38.523Z,4.30
2019-02-20T08:33:05.990Z,4.60
2019-02-20T08:35:33.466Z,4.83
2019-02-20T08:38:00.983Z,4.13
2019-02-20T08:40:28.454Z,4.20
2019-02-20T08:42:55.913Z,4.30
2019-02-20T08:45:24.098Z,4.50
2019-02-20T08:47:51.558Z,4.27
2019-02-20T08:50:19.041Z,4.57
2019-02-20T08:52:46.503Z,4.73
2019-02-20T08:55:14.074Z,4.53
2019-02-20T08:57:41.631Z,4.33
2019-02-20T09:00:09.865Z,4.82
2019-02-20T09:02:37.327Z,5.03
2019-02-20T09:05:04.832Z,5.47
2019-02-20T09:07:32.390Z,5.00
2019-02-20T09:09:59.848Z,4.77
2019-02-20T09:12:27.476Z,4.80
2019-02-20T09:14:54.942Z,4.87
2019-02-20T09:17:22.411Z,5.43
2019-02-20T09:19:49.877Z,5.73
2019-02-20T09:22:17.332Z,4.40
2019-02-20T09:24:44.781Z,5.17
2019-02-20T09:27:12.289Z,5.23
2019-02-20T09:29:39.759Z,5.20
2019-02-20T09:32:07.226Z,5.13
2019-02-20T09:34:36.212Z,5.53
2019-02-20T09:37:03.663Z,5.27
2019-02-20T09:39:31.139Z,5.57
2019-02-20T09:41:58.614Z,5.63
2019-02-20T09:44:26.073Z,5.77
2019-02-20T09:46:53.537Z,5.37
2019-02-20T09:49:21.018Z,5.80
2019-02-20T09:51:49.276Z,6.43
2019-02-20T09:54:16.733Z,5.10
2019-02-20T09:56:44.195Z,5.60
2019-02-20T09:59:11.638Z,5.23
2019-02-20T10:01:39.109Z,4.93
2019-02-20T10:04:06.584Z,5.00
2019-02-20T10:06:34.053Z,4.73
2019-02-20T10:09:01.510Z,5.67
2019-02-20T10:11:30.473Z,5.10
2019-02-20T10:13:57.959Z,4.80
2019-02-20T10:16:25.415Z,5.23
2019-02-20T10:18:52.882Z,5.80
2019-02-20T10:21:20.485Z,5.70
2019-02-20T10:23:48.710Z,4.57
2019-02-20T10:26:16.176Z,5.00
2019-02-20T10:28:43.653Z,5.00
2019-02-20T10:31:11.118Z,5.57
2019-02-20T10:33:38.678Z,5.27
2019-02-20T10:36:06.133Z,5.23
2019-02-20T10:38:33.595Z,3.80
2019-02-20T10:41:01.091Z,4.03
2019-02-20T10:43:30.167Z,4.30
2019-02-20T10:45:57.738Z,4.33
2019-02-20T10:48:25.249Z,4.27
2019-02-20T10:50:52.715Z,4.33
2019-02-20T10:53:20.168Z,4.27
2019-02-20T10:55:47.636Z,4.03
2019-02-20T10:58:15.147Z,3.83
2019-02-20T11:00:42.702Z,4.13
2019-02-20T11:03:10.988Z,4.00
2019-02-20T11:05:38.453Z,4.90
2019-02-20T11:08:06.722Z,3.57
2019-02-20T11:10:34.182Z,3.77
2019-02-20T11:13:01.669Z,4.27
2019-02-20T11:15:29.897Z,3.63
2019-02-20T11:17:57.442Z,5.47
2019-02-20T11:20:24.945Z,4.50
2019-02-20T11:22:52.426Z,4.43
2019-02-20T11:25:19.979Z,4.57
2019-02-20T11:27:47.448Z,4.67
2019-02-20T11:30:16.724Z,3.90
2019-02-20T11:32:44.229Z,4.60
2019-02-20T11:35:12.462Z,4.97
2019-02-20T11:37:39.925Z,4.80
2019-02-20T11:40:07.401Z,5.70
2019-02-20T11:42:34.873Z,4.87
2019-02-20T11:45:02.339Z,5.23
2019-02-20T11:47:29.808Z,5.30
2019-02-20T11:49:58.077Z,5.17
2019-02-20T11:52:25.548Z,5.20
2019-02-20T11:54:54.541Z,4.90
2019-02-20T11:57:22.018Z,5.07
2019-02-20T11:59:50.231Z,4.33
2019-02-20T12:02:17.749Z,3.93
2019-02-20T12:04:45.309Z,4.20
2019-02-20T12:07:12.763Z,4.50
2019-02-20T12:09:40.233Z,3.83
2019-02-20T12:12:09.418Z,3.97
2019-02-20T12:14:35.969Z,3.73
2019-02-20T12:17:04.248Z,4.10
2019-02-20T12:19:31.825Z,3.67
2019-02-20T12:22:00.125Z,3.70
2019-02-20T12:24:27.583Z,3.50
2019-02-20T12:26:55.116Z,3.40
2019-02-20T12:29:22.582Z,3.57
2019-02-20T12:31:52.502Z,3.53
2019-02-20T12:34:17.625Z,4.00
2019-02-20T12:36:45.200Z,3.00
2019-02-20T12:39:12.647Z,3.47
2019-02-20T12:41:40.350Z,3.53
2019-02-20T12:44:08.488Z,3.07
2019-02-20T12:46:35.946Z,2.80
2019-02-20T12:49:04.410Z,3.35
2019-02-20T12:51:31.875Z,3.00
2019-02-20T12:53:59.337Z,3.00
2019-02-20T12:56:26.815Z,3.37
2019-02-20T12:58:55.800Z,3.43
2019-02-20T13:01:23.257Z,3.03
2019-02-20T13:03:50.834Z,3.00
2019-02-20T13:06:18.289Z,3.17
2019-02-20T13:08:45.755Z,3.10
2019-02-20T13:11:14.552Z,2.40
2019-02-20T13:13:41.493Z,2.30
2019-02-20T13:16:09.752Z,2.90
2019-02-20T13:18:37.234Z,2.57
2019-02-20T13:21:04.697Z,2.60
2019-02-20T13:23:32.147Z,2.37
2019-02-20T13:25:59.614Z,2.33
2019-02-20T13:28:27.090Z,2.30
2019-02-20T13:30:54.558Z,2.00
2019-02-20T13:33:22.014Z,1.70
2019-02-20T13:35:49.581Z,2.17
2019-02-20T13:38:17.147Z,1.93
2019-02-20T13:40:45.507Z,2.60
2019-02-20T13:43:12.959Z,1.80
2019-02-20T13:45:40.421Z,1.90
2019-02-20T13:48:07.884Z,2.30
2019-02-20T13:50:35.387Z,1.83
2019-02-20T13:53:03.867Z,2.00
2019-02-20T13:55:34.511Z,1.90
2019-02-20T13:57:59.592Z,1.97
2019-02-20T14:00:27.065Z,1.97
2019-02-20T14:02:54.638Z,2.03
2019-02-20T14:05:22.915Z,2.13
2019-02-20T14:07:51.195Z,1.80
2019-02-20T14:10:19.652Z,1.83
2019-02-20T14:12:46.973Z,1.60
2019-02-20T14:15:14.496Z,1.87
2019-02-20T14:17:42.944Z,1.70
2019-02-20T14:20:10.451Z,1.87
2019-02-20T14:22:38.723Z,1.90
2019-02-20T14:25:07.085Z,1.93
2019-02-20T14:27:35.289Z,2.00
2019-02-20T14:30:05.252Z,2.27
2019-02-20T14:32:32.708Z,1.83
2019-02-20T14:35:00.331Z,2.30
2019-02-20T14:37:27.834Z,1.90
2019-02-20T14:39:56.029Z,2.10
2019-02-20T14:42:23.492Z,1.90
2019-02-20T14:44:50.971Z,1.73
2019-02-20T14:47:18.457Z,1.40
2019-02-20T14:49:45.926Z,1.80
2019-02-20T14:52:13.383Z,1.50
2019-02-20T14:54:40.856Z,2.00
2019-02-20T14:57:08.429Z,1.60
2019-02-20T14:59:36.693Z,1.77
2019-02-20T15:02:04.171Z,1.70
2019-02-20T15:04:32.404Z,1.17
2019-02-20T15:06:59.952Z,1.50
2019-02-20T15:09:27.414Z,1.67
2019-02-20T15:11:54.877Z,1.43
2019-02-20T15:14:22.342Z,1.80
2019-02-20T15:16:49.832Z,1.60
2019-02-20T15:19:17.297Z,1.60
2019-02-20T15:21:44.775Z,1.73
2019-02-20T15:24:12.240Z,1.87
2019-02-20T15:26:39.700Z,1.90
2019-02-20T15:29:07.182Z,1.93
2019-02-20T15:31:34.651Z,1.40
2019-02-20T15:34:02.127Z,1.83
2019-02-20T15:36:29.617Z,2.10
2019-02-20T15:38:57.094Z,2.07
2019-02-20T15:41:24.629Z,2.30
2019-02-20T15:43:52.092Z,1.50
2019-02-20T15:46:19.557Z,1.80
2019-02-20T15:48:47.059Z,1.53
2019-02-20T15:51:14.620Z,1.62
2019-02-20T15:53:42.174Z,1.70
2019-02-20T15:56:09.632Z,1.73
2019-02-20T15:58:37.106Z,1.80
2019-02-20T16:01:05.685Z,1.70
2019-02-20T16:03:32.133Z,2.17
2019-02-20T16:05:59.615Z,2.17
2019-02-20T16:08:27.856Z,2.43
2019-02-20T16:10:55.376Z,2.27
2019-02-20T16:13:22.806Z,2.60
2019-02-20T16:15:50.274Z,2.53
2019-02-20T16:18:19.927Z,2.27
2019-02-20T16:20:45.584Z,2.40
2019-02-20T16:23:13.042Z,2.20
2019-02-20T16:25:40.614Z,2.03
2019-02-20T16:28:08.088Z,2.30
2019-02-20T16:30:36.354Z,2.20
2019-02-20T16:33:03.816Z,2.07
2019-02-20T16:35:31.588Z,2.28
2019-02-20T16:37:59.153Z,1.90
2019-02-20T16:40:26.640Z,2.23
2019-02-20T16:42:54.875Z,1.70
2019-02-20T16:45:22.333Z,1.80
2019-02-20T16:47:49.810Z,1.77
2019-02-20T16:50:17.287Z,1.73
2019-02-20T16:52:44.770Z,1.77
2019-02-20T16:55:19.409Z,1.80
2019-02-20T16:57:40.469Z,1.63
2019-02-20T17:00:07.947Z,1.37
2019-02-20T17:02:35.420Z,1.50
2019-02-20T17:05:04.291Z,1.80
2019-02-20T17:07:31.778Z,1.90
2019-02-20T17:09:59.996Z,1.90
2019-02-20T17:12:27.495Z,2.47
2019-02-20T17:14:54.953Z,1.67
2019-02-20T17:17:22.428Z,1.97
2019-02-20T17:19:49.902Z,2.10
2019-02-20T17:22:17.365Z,1.90
2019-02-20T17:24:45.633Z,2.17
2019-02-20T17:27:13.163Z,2.00
2019-02-20T17:29:40.688Z,2.60
2019-02-20T17:32:08.941Z,2.37
2019-02-20T17:34:37.220Z,2.30
2019-02-20T17:37:06.204Z,2.37
2019-02-20T17:39:33.781Z,1.97
2019-02-20T17:42:02.049Z,2.43
2019-02-20T17:44:29.511Z,2.30
2019-02-20T17:46:56.987Z,2.37
2019-02-20T17:49:24.555Z,2.53
2019-02-20T17:51:52.019Z,2.67
2019-02-20T17:54:19.592Z,2.83
2019-02-20T17:56:48.696Z,2.90
2019-02-20T17:59:16.204Z,2.67
2019-02-20T18:01:43.704Z,3.27
2019-02-20T18:04:11.166Z,3.13
2019-02-20T18:06:38.720Z,3.07
2019-02-20T18:09:06.204Z,2.93
2019-02-20T18:11:33.756Z,3.03
2019-02-20T18:14:01.236Z,3.20
2019-02-20T18:16:28.709Z,3.37
2019-02-20T18:18:56.981Z,3.10
2019-02-20T18:21:25.249Z,3.40
2019-02-20T18:23:54.205Z,3.30
2019-02-20T18:26:21.686Z,3.40
2019-02-20T18:28:49.160Z,3.17
2019-02-20T18:31:16.611Z,3.07
2019-02-20T18:33:44.072Z,3.30
2019-02-20T18:36:11.801Z,3.23
2019-02-20T18:38:39.139Z,3.37
2019-02-20T18:41:07.353Z,3.27
2019-02-20T18:43:34.864Z,4.17
2019-02-20T18:46:02.348Z,3.30
2019-02-20T18:48:30.607Z,3.43
2019-02-20T18:50:58.061Z,3.73
2019-02-20T18:53:25.511Z,3.60
2019-02-20T18:55:52.971Z,3.57
2019-02-20T18:58:20.429Z,3.70
2019-02-20T19:00:47.927Z,4.10
2019-02-20T19:03:15.404Z,3.70
2019-02-20T19:05:43.680Z,3.93
2019-02-20T19:08:23.894Z,3.33
2019-02-20T19:10:51.369Z,3.63
2019-02-20T19:13:18.899Z,3.77
2019-02-20T19:15:51.903Z,3.53
2019-02-20T19:18:31.169Z,3.43
2019-02-20T19:21:10.241Z,3.27
2019-02-20T19:26:40.114Z,4.57
2019-02-20T19:29:33.903Z,4.00
2019-02-20T19:35:12.926Z,4.35
2019-02-20T19:40:51.732Z,4.87
2019-02-20T19:43:27.700Z,4.80
2019-02-20T19:46:00.849Z,3.53
2019-02-20T19:51:28.536Z,4.30
2019-02-20T19:53:59.578Z,4.30
2019-02-20T20:00:01.978Z,4.40
2019-02-20T20:02:50.955Z,3.90
2019-02-20T20:05:22.516Z,4.33
2019-02-20T20:07:54.459Z,4.27
2019-02-20T20:10:33.995Z,4.30
2019-02-20T20:15:57.484Z,4.93
2019-02-20T20:18:28.371Z,4.80
2019-02-20T20:20:56.651Z,4.40
2019-02-20T20:23:31.720Z,4.33
2019-02-20T20:26:14.730Z,4.70
2019-02-20T20:28:49.899Z,4.27
2019-02-20T20:31:19.193Z,5.27
2019-02-20T20:33:53.321Z,5.00
2019-02-20T20:36:42.622Z,4.40
2019-02-20T20:39:16.658Z,4.00
2019-02-20T20:42:13.886Z,3.77
2019-02-20T20:48:19.698Z,5.93
2019-02-20T20:50:54.941Z,4.53
2019-02-20T20:53:28.394Z,5.20
2019-02-20T20:56:21.437Z,4.27
2019-02-20T20:59:17.167Z,4.83
2019-02-20T21:01:37.542Z,3.97
2019-02-20T21:04:19.376Z,4.67
2019-02-20T21:10:16.881Z,5.32
2019-02-20T21:13:03.921Z,4.03
2019-02-20T21:15:39.914Z,4.20
2019-02-20T21:18:28.947Z,5.03
2019-02-20T21:21:06.118Z,4.60
2019-02-20T21:23:42.276Z,4.53
2019-02-20T21:26:18.365Z,5.53
2019-02-20T21:29:07.327Z,4.73
2019-02-20T21:34:52.219Z,6.20
2019-02-20T21:37:26.465Z,5.67
2019-02-20T21:39:56.873Z,5.70
2019-02-20T21:45:30.095Z,6.47
2019-02-20T21:48:15.003Z,5.30
2019-02-20T21:50:47.941Z,5.43
2019-02-20T21:53:21.378Z,6.25
2019-02-20T21:56:06.299Z,6.03
2019-02-20T21:59:03.347Z,5.20
2019-02-20T22:01:42.408Z,6.00
2019-02-20T22:07:16.172Z,7.12
2019-02-20T22:09:57.682Z,6.40
2019-02-20T22:15:25.426Z,7.35
2019-02-20T22:18:13.303Z,6.13
2019-02-20T22:20:44.330Z,5.70
2019-02-20T22:26:13.867Z,7.78
2019-02-20T22:31:43.085Z,7.12
2019-02-20T22:37:49.987Z,6.93
2019-02-20T22:40:37.058Z,6.53
2019-02-20T22:43:36.009Z,5.83
2019-02-20T22:46:05.327Z,6.83
2019-02-20T22:48:34.487Z,6.30
2019-02-20T22:51:10.691Z,7.20
2019-02-20T22:56:50.085Z,7.78
2019-02-20T22:59:21.377Z,6.30
2019-02-20T23:02:07.127Z,6.40
2019-02-20T23:04:37.742Z,6.33
2019-02-20T23:07:13.663Z,6.63
2019-02-20T23:09:52.559Z,5.67
2019-02-20T23:12:21.089Z,6.83
2019-02-20T23:14:52.946Z,6.47
2019-02-20T23:17:20.413Z,6.17
2019-02-20T23:19:47.872Z,6.77
2019-02-20T23:22:15.908Z,6.03
2019-02-20T23:24:43.410Z,5.77
2019-02-20T23:27:10.928Z,6.43
2019-02-20T23:29:39.183Z,6.40
2019-02-20T23:32:06.650Z,6.30
2019-02-20T23:34:34.143Z,6.80
2019-02-20T23:37:01.698Z,6.70
2019-02-20T23:39:29.129Z,5.47
2019-02-20T23:41:56.605Z,5.93
2019-02-20T23:44:24.945Z,6.40
2019-02-20T23:46:52.580Z,5.40
2019-02-20T23:49:20.094Z,5.50
2019-02-20T23:51:47.545Z,6.03
2019-02-20T23:54:15.109Z,4.87
2019-02-20T23:56:42.664Z,4.80
2019-02-20T23:59:10.115Z,4.87
